Главная страница
METAR-TAF:

METAR-TAF

Аэропорты :

Шёвде, Швеция

широта: 58-27N, долгота: 013-58E, высота над уровнем моря: 98 м

Текущие метеонаблюдения

Эта сводка был подготовлена 32 минут назад, в 06:20 UTC
Ветер 7 Узел от южный-юго-западный
Температура 8°C
Влажность 100%
Давление 1007 hPa
Видимость: 8000 м
дымка

METAR: ESGR 170620Z AUTO 20007KT 8000 BR VV017 08/08 Q1007

Время: 07:52 (06:52 UTC)


TAF: отсутствует

Метеонаблюдения и прогнозы для более 4000 аэропортов (сводки METAR и TAF).

Имеющиеся станции представлены на карте желтыми и красными точками.

Чтобы увидеть название станции, наведите на нее мышь.

Затем щелкните, чтобы увидеть метеонаблюдения и метеопрогнозы.

Управление картой: чтобы увеличить масштаб, щелкните зеленые кнопки с черным крестиком; чтобы уменьшить масштаб, щелкните зеленую кнопку с тире; для просмотра соседних карт щелкайте зеленые стрелки.


METAR-TAF: